createdAt,value
2022-12-08T00:01:14.337Z,9.02
2022-12-08T00:03:41.546Z,8.32
2022-12-08T00:06:44.895Z,9.48
2022-12-08T00:09:24.828Z,7.47
2022-12-08T00:12:12.431Z,7.47
2022-12-08T00:19:33.908Z,6.63
2022-12-08T00:22:00.540Z,10.02
2022-12-08T00:24:31.296Z,7.50
2022-12-08T00:26:57.823Z,7.75
2022-12-08T00:29:24.296Z,7.85
2022-12-08T00:31:50.957Z,8.63
2022-12-08T00:34:17.562Z,7.43
2022-12-08T00:36:44.334Z,6.63
2022-12-08T00:39:12.224Z,6.95
2022-12-08T00:41:57.716Z,6.88
2022-12-08T00:44:24.643Z,8.50
2022-12-08T00:46:51.154Z,7.93
2022-12-08T00:49:18.119Z,7.50
2022-12-08T00:51:44.992Z,6.65
2022-12-08T00:54:11.855Z,5.00
2022-12-08T00:56:38.593Z,6.63
2022-12-08T00:59:06.379Z,7.65
2022-12-08T01:01:34.199Z,7.18
2022-12-08T01:04:05.300Z,5.85
2022-12-08T01:06:31.807Z,7.28
2022-12-08T01:08:58.272Z,7.53
2022-12-08T01:11:24.773Z,7.18
2022-12-08T01:13:51.337Z,6.28
2022-12-08T01:16:26.799Z,6.40
2022-12-08T01:18:53.602Z,6.85
2022-12-08T01:21:20.840Z,7.00
2022-12-08T01:23:47.501Z,5.43
2022-12-08T01:26:15.831Z,6.80
2022-12-08T01:28:42.673Z,6.43
2022-12-08T01:31:14.481Z,6.43
2022-12-08T01:33:41.356Z,7.05
2022-12-08T01:36:09.289Z,6.60
2022-12-08T01:38:35.826Z,5.47
2022-12-08T01:41:02.405Z,6.60
2022-12-08T01:43:58.769Z,7.07
2022-12-08T01:46:26.218Z,7.88
2022-12-08T01:48:57.180Z,5.18
2022-12-08T01:51:23.831Z,5.35
2022-12-08T01:53:50.720Z,6.15
2022-12-08T01:56:30.236Z,6.18
2022-12-08T01:58:56.812Z,6.88
2022-12-08T02:01:23.758Z,6.53
2022-12-08T02:03:58.075Z,6.40
2022-12-08T02:06:26.511Z,5.80
2022-12-08T02:08:55.120Z,6.78
2022-12-08T02:11:21.881Z,5.43
2022-12-08T02:13:50.338Z,5.18
2022-12-08T02:19:31.669Z,5.85
2022-12-08T02:22:00.844Z,6.47
2022-12-08T02:24:49.307Z,5.70
2022-12-08T02:27:44.166Z,5.30
2022-12-08T02:30:21.647Z,5.40
2022-12-08T02:33:25.888Z,6.38
2022-12-08T02:35:56.829Z,5.07
2022-12-08T02:38:37.129Z,6.13
2022-12-08T02:41:03.604Z,5.90
2022-12-08T02:43:35.883Z,5.07
2022-12-08T02:46:05.828Z,5.72
2022-12-08T02:48:33.440Z,5.22
2022-12-08T02:51:00.017Z,5.40
2022-12-08T02:53:28.393Z,4.88
2022-12-08T02:58:42.955Z,5.85
2022-12-08T03:01:30.213Z,4.85
2022-12-08T03:04:05.979Z,4.90
2022-12-08T03:06:46.669Z,4.45
2022-12-08T03:09:35.447Z,5.05
2022-12-08T03:12:22.941Z,5.95
2022-12-08T03:14:53.334Z,5.75
2022-12-08T03:17:22.205Z,6.07
2022-12-08T03:19:49.101Z,5.25
2022-12-08T03:22:19.460Z,5.25
2022-12-08T03:24:46.742Z,5.45
2022-12-08T03:27:20.469Z,5.18
2022-12-08T03:29:48.583Z,5.32
2022-12-08T03:32:27.228Z,5.05
2022-12-08T03:34:54.588Z,4.70
2022-12-08T03:37:21.445Z,4.60
2022-12-08T03:39:48.344Z,3.85
2022-12-08T03:42:14.840Z,4.20
2022-12-08T03:44:41.381Z,4.95
2022-12-08T03:47:07.876Z,5.65
2022-12-08T03:49:34.661Z,4.97
2022-12-08T03:52:01.206Z,7.00
2022-12-08T03:54:27.763Z,5.93
2022-12-08T03:56:54.275Z,4.50
2022-12-08T03:59:20.824Z,5.03
2022-12-08T04:01:47.404Z,5.47
2022-12-08T04:04:13.897Z,4.90
2022-12-08T04:06:40.439Z,4.95
2022-12-08T04:09:06.962Z,5.22
2022-12-08T04:11:33.513Z,5.70
2022-12-08T04:14:00.010Z,4.55
2022-12-08T04:16:27.900Z,5.45
2022-12-08T04:18:54.518Z,4.65
2022-12-08T04:21:21.535Z,4.82
2022-12-08T04:23:48.412Z,4.15
2022-12-08T04:26:15.310Z,4.30
2022-12-08T04:28:41.882Z,4.82
2022-12-08T04:31:08.550Z,5.10
2022-12-08T04:33:35.360Z,4.68
2022-12-08T04:36:03.034Z,4.68
2022-12-08T04:38:29.854Z,4.50
2022-12-08T04:40:56.400Z,4.38
2022-12-08T04:43:22.921Z,4.97
2022-12-08T04:45:49.415Z,4.93
2022-12-08T04:48:16.010Z,4.70
2022-12-08T04:50:44.399Z,4.82
2022-12-08T04:53:11.668Z,4.90
2022-12-08T04:55:41.285Z,6.18
2022-12-08T04:58:07.784Z,5.07
2022-12-08T05:00:34.272Z,4.18
2022-12-08T05:03:00.931Z,6.13
2022-12-08T05:05:27.526Z,5.78
2022-12-08T05:07:54.071Z,4.75
2022-12-08T05:10:20.648Z,4.60
2022-12-08T05:12:47.255Z,4.95
2022-12-08T05:15:13.770Z,4.75
2022-12-08T05:17:40.275Z,4.28
2022-12-08T05:20:07.309Z,4.82
2022-12-08T05:22:33.840Z,5.35
2022-12-08T05:25:00.476Z,5.28
2022-12-08T05:27:27.001Z,4.22
2022-12-08T05:29:53.556Z,4.38
2022-12-08T05:32:20.067Z,5.07
2022-12-08T05:34:46.525Z,4.45
2022-12-08T05:37:13.141Z,4.60
2022-12-08T05:39:39.753Z,5.60
2022-12-08T05:42:06.437Z,4.45
2022-12-08T05:44:33.046Z,5.57
2022-12-08T05:46:59.668Z,5.63
2022-12-08T05:49:26.431Z,4.95
2022-12-08T05:51:53.094Z,5.28
2022-12-08T05:54:19.702Z,4.07
2022-12-08T05:56:46.260Z,5.40
2022-12-08T05:59:12.855Z,4.30
2022-12-08T06:01:39.529Z,5.32
2022-12-08T06:04:06.081Z,5.13
2022-12-08T06:06:34.835Z,4.80
2022-12-08T06:09:03.627Z,4.05
2022-12-08T06:11:31.125Z,5.13
2022-12-08T06:13:58.339Z,4.63
2022-12-08T06:16:26.268Z,4.07
2022-12-08T06:18:53.238Z,4.68
2022-12-08T06:21:20.227Z,4.22
2022-12-08T06:23:51.126Z,4.90
2022-12-08T06:26:17.936Z,4.45
2022-12-08T06:28:44.589Z,4.30
2022-12-08T06:31:15.576Z,4.25
2022-12-08T06:33:42.298Z,3.55
2022-12-08T06:36:10.549Z,4.80
2022-12-08T06:38:41.767Z,4.15
2022-12-08T06:41:10.197Z,5.10
2022-12-08T06:43:36.791Z,3.83
2022-12-08T06:46:06.149Z,4.20
2022-12-08T06:48:32.727Z,4.95
2022-12-08T06:51:09.689Z,4.25
2022-12-08T06:53:36.499Z,4.00
2022-12-08T06:56:03.844Z,4.03
2022-12-08T06:58:30.368Z,3.85
2022-12-08T07:00:56.936Z,3.55
2022-12-08T07:03:23.493Z,4.57
2022-12-08T07:05:50.036Z,4.32
2022-12-08T07:08:16.616Z,4.03
2022-12-08T07:10:43.359Z,3.22
2022-12-08T07:13:09.896Z,3.78
2022-12-08T07:15:36.423Z,3.60
2022-12-08T07:18:02.951Z,4.30
2022-12-08T07:20:29.518Z,4.05
2022-12-08T07:22:56.100Z,4.07
2022-12-08T07:25:22.701Z,4.32
2022-12-08T07:27:51.359Z,4.28
2022-12-08T07:30:17.896Z,4.22
2022-12-08T07:32:44.812Z,4.05
2022-12-08T07:35:11.464Z,4.53
2022-12-08T07:37:38.413Z,3.92
2022-12-08T07:40:06.769Z,3.90
2022-12-08T07:42:33.679Z,3.65
2022-12-08T07:45:00.724Z,3.83
2022-12-08T07:47:27.329Z,4.07
2022-12-08T07:49:53.805Z,3.53
2022-12-08T07:52:20.362Z,3.88
2022-12-08T07:54:47.297Z,3.67
2022-12-08T07:57:14.086Z,3.83
2022-12-08T07:59:40.550Z,3.60
2022-12-08T08:02:24.351Z,4.07
2022-12-08T08:04:52.238Z,4.35
2022-12-08T08:07:18.868Z,3.33
2022-12-08T08:09:45.734Z,3.33
2022-12-08T08:12:30.816Z,3.85
2022-12-08T08:14:59.097Z,3.03
2022-12-08T08:17:25.760Z,3.67
2022-12-08T08:19:52.414Z,3.35
2022-12-08T08:22:18.972Z,3.75
2022-12-08T08:24:45.482Z,3.70
2022-12-08T08:27:12.343Z,3.08
2022-12-08T08:29:38.949Z,3.15
2022-12-08T08:32:05.763Z,3.38
2022-12-08T08:34:32.329Z,3.83
2022-12-08T08:36:58.927Z,3.28
2022-12-08T08:39:25.565Z,3.38
2022-12-08T08:41:52.331Z,3.67
2022-12-08T08:44:18.822Z,3.33
2022-12-08T08:46:45.367Z,3.60
2022-12-08T08:49:11.960Z,4.03
2022-12-08T08:51:38.607Z,4.38
2022-12-08T08:54:05.180Z,4.40
2022-12-08T08:56:31.850Z,3.63
2022-12-08T08:58:58.351Z,3.28
2022-12-08T09:01:27.420Z,4.03
2022-12-08T09:03:54.501Z,3.10
2022-12-08T09:06:21.634Z,3.42
2022-12-08T09:08:48.576Z,3.60
2022-12-08T09:11:15.449Z,3.58
2022-12-08T09:13:42.132Z,3.63
2022-12-08T09:16:09.171Z,3.35
2022-12-08T09:18:35.795Z,3.28
2022-12-08T09:21:11.484Z,3.17
2022-12-08T09:23:37.974Z,4.60
2022-12-08T09:26:05.149Z,3.80
2022-12-08T09:28:32.466Z,3.60
2022-12-08T09:30:59.094Z,2.65
2022-12-08T09:33:25.688Z,3.03
2022-12-08T09:35:52.242Z,3.25
2022-12-08T09:38:18.807Z,2.65
2022-12-08T09:40:52.903Z,5.35
2022-12-08T09:43:40.100Z,5.22
2022-12-08T09:46:11.442Z,3.92
2022-12-08T09:48:42.102Z,3.38
2022-12-08T09:51:09.298Z,3.92
2022-12-08T09:53:37.200Z,4.15
2022-12-08T09:56:08.562Z,3.97
2022-12-08T09:58:52.508Z,3.83
2022-12-08T10:01:20.632Z,4.32
2022-12-08T10:03:47.900Z,4.45
2022-12-08T10:06:30.764Z,3.17
2022-12-08T10:09:08.840Z,3.42
2022-12-08T10:11:45.521Z,2.85
2022-12-08T10:14:49.885Z,3.83
2022-12-08T10:17:24.390Z,3.40
2022-12-08T10:19:55.892Z,3.10
2022-12-08T10:22:24.760Z,3.13
2022-12-08T10:25:01.296Z,3.05
2022-12-08T10:27:27.953Z,3.08
2022-12-08T10:29:54.475Z,3.20
2022-12-08T10:32:23.535Z,2.90
2022-12-08T10:35:05.316Z,2.95
2022-12-08T10:37:31.994Z,2.50
2022-12-08T10:40:01.566Z,3.65
2022-12-08T10:42:34.467Z,3.67
2022-12-08T10:45:15.242Z,3.25
2022-12-08T10:47:45.036Z,2.72
2022-12-08T10:50:32.169Z,3.03
2022-12-08T10:53:07.535Z,3.58
2022-12-08T10:55:49.032Z,2.45
2022-12-08T10:58:27.218Z,3.25
2022-12-08T11:00:56.850Z,3.38
2022-12-08T11:03:51.428Z,2.92
2022-12-08T11:06:26.803Z,2.78
2022-12-08T11:08:55.435Z,2.92
2022-12-08T11:11:29.053Z,2.97
2022-12-08T11:13:56.260Z,2.75
2022-12-08T11:16:23.102Z,3.65
2022-12-08T11:18:56.410Z,3.35
2022-12-08T11:21:31.554Z,3.45
2022-12-08T11:23:58.062Z,2.78
2022-12-08T11:26:32.765Z,3.00
2022-12-08T11:28:59.341Z,3.08
2022-12-08T11:31:35.065Z,3.05
2022-12-08T11:34:02.043Z,2.72
2022-12-08T11:36:30.348Z,2.28
2022-12-08T11:38:59.845Z,3.15
2022-12-08T11:41:30.757Z,2.33
2022-12-08T11:44:18.460Z,2.83
2022-12-08T11:49:38.542Z,2.88
2022-12-08T11:52:23.867Z,2.88
2022-12-08T11:55:01.555Z,3.25
2022-12-08T11:57:29.748Z,2.90
2022-12-08T11:59:57.469Z,3.70
2022-12-08T12:02:26.420Z,3.17
2022-12-08T12:04:57.112Z,3.33
2022-12-08T12:07:52.140Z,4.97
2022-12-08T12:10:30.648Z,3.00
2022-12-08T12:13:22.644Z,3.40
2022-12-08T12:16:18.957Z,4.70
2022-12-08T12:18:56.301Z,4.45
2022-12-08T12:21:35.101Z,4.60
2022-12-08T12:24:27.506Z,4.85
2022-12-08T12:27:06.679Z,4.60
2022-12-08T12:29:36.025Z,6.15
2022-12-08T12:32:12.371Z,4.82
2022-12-08T12:34:48.231Z,4.75
2022-12-08T12:37:17.339Z,5.05
2022-12-08T12:39:53.828Z,4.95
2022-12-08T12:42:42.420Z,5.55
2022-12-08T12:45:22.824Z,5.30
2022-12-08T12:48:13.532Z,4.72
2022-12-08T12:50:44.866Z,7.32
2022-12-08T12:53:17.910Z,6.30
2022-12-08T12:56:00.176Z,7.38
2022-12-08T12:58:32.208Z,5.97
2022-12-08T13:01:13.933Z,6.65
2022-12-08T13:03:43.463Z,7.78
2022-12-08T13:06:14.637Z,8.00
2022-12-08T13:08:50.372Z,7.63
2022-12-08T13:11:17.008Z,5.70
2022-12-08T13:14:01.362Z,6.15
2022-12-08T13:16:31.814Z,6.18
2022-12-08T13:19:02.229Z,5.53
2022-12-08T13:21:35.232Z,4.80
2022-12-08T13:24:13.765Z,4.80
2022-12-08T13:26:50.544Z,4.63
2022-12-08T13:29:21.520Z,5.28
2022-12-08T13:31:54.677Z,5.65
2022-12-08T13:34:33.215Z,5.15
2022-12-08T13:37:08.169Z,4.68
2022-12-08T13:39:40.673Z,4.55
2022-12-08T13:42:13.109Z,4.32
2022-12-08T13:45:24.243Z,3.90
2022-12-08T13:49:36.587Z,4.25
2022-12-08T13:53:41.737Z,3.53
2022-12-08T13:57:28.593Z,4.63
2022-12-08T14:00:00.628Z,3.60
2022-12-08T14:02:30.634Z,4.35
2022-12-08T14:07:44.685Z,3.95
2022-12-08T14:10:18.181Z,3.65
2022-12-08T14:12:47.125Z,3.97
2022-12-08T14:15:15.235Z,3.83
2022-12-08T14:17:50.908Z,4.25
2022-12-08T14:20:25.234Z,4.25
2022-12-08T14:22:52.801Z,4.05
2022-12-08T14:25:20.340Z,4.35
2022-12-08T14:27:47.200Z,4.10
2022-12-08T14:30:16.587Z,3.88
2022-12-08T14:32:51.193Z,3.92
2022-12-08T14:35:20.729Z,3.55
2022-12-08T14:37:48.580Z,3.42
2022-12-08T14:40:22.765Z,4.00
2022-12-08T14:45:41.321Z,3.45
2022-12-08T14:48:29.346Z,3.03
2022-12-08T14:51:05.684Z,2.85
2022-12-08T14:53:39.756Z,2.92
2022-12-08T14:56:08.765Z,3.42
2022-12-08T14:58:35.396Z,2.90
2022-12-08T15:01:04.645Z,3.40
2022-12-08T15:03:31.337Z,2.67
2022-12-08T15:06:05.215Z,2.72
2022-12-08T15:08:32.285Z,2.90
2022-12-08T15:11:27.568Z,3.65
2022-12-08T15:13:54.516Z,3.22
2022-12-08T15:16:27.262Z,3.72
2022-12-08T15:19:33.720Z,3.10
2022-12-08T15:22:16.751Z,2.97
2022-12-08T15:24:43.275Z,2.88
2022-12-08T15:27:16.750Z,3.38
2022-12-08T15:29:43.244Z,3.03
2022-12-08T15:32:11.195Z,3.08
2022-12-08T15:34:37.669Z,2.65
2022-12-08T15:37:05.022Z,3.40
2022-12-08T15:39:33.635Z,2.88
2022-12-08T15:42:01.968Z,2.70
2022-12-08T15:46:56.121Z,3.30
2022-12-08T15:49:23.822Z,3.10
2022-12-08T15:51:56.513Z,2.83
2022-12-08T15:54:27.240Z,3.58
2022-12-08T15:57:18.667Z,3.30
2022-12-08T15:59:42.836Z,3.08
2022-12-08T16:02:14.537Z,2.95
2022-12-08T16:07:30.362Z,3.00
2022-12-08T16:09:57.227Z,2.47
2022-12-08T16:15:59.256Z,2.40
2022-12-08T16:18:26.095Z,2.33
2022-12-08T16:23:44.147Z,2.53
2022-12-08T16:26:44.144Z,2.33
2022-12-08T16:29:05.283Z,2.08
2022-12-08T16:31:32.040Z,3.50
2022-12-08T16:33:58.752Z,3.20
2022-12-08T16:36:25.390Z,2.85
2022-12-08T16:38:51.973Z,2.58
2022-12-08T16:41:36.880Z,2.78
2022-12-08T16:44:05.659Z,3.05
2022-12-08T16:46:32.255Z,2.42
2022-12-08T16:48:59.153Z,2.92
2022-12-08T16:51:27.222Z,2.33
2022-12-08T16:53:55.356Z,3.22
2022-12-08T16:56:26.202Z,3.08
2022-12-08T16:58:57.229Z,2.53
2022-12-08T17:01:23.807Z,2.35
2022-12-08T17:04:07.470Z,2.40
2022-12-08T17:06:36.880Z,1.95
2022-12-08T17:09:03.925Z,2.58
2022-12-08T17:11:37.468Z,2.33
2022-12-08T17:14:05.859Z,2.85
2022-12-08T17:16:32.420Z,2.40
2022-12-08T17:18:59.060Z,2.55
2022-12-08T17:21:25.600Z,2.50
2022-12-08T17:23:52.235Z,1.83
2022-12-08T17:26:18.790Z,2.75
2022-12-08T17:29:00.036Z,2.53
2022-12-08T17:31:29.869Z,2.03
2022-12-08T17:34:05.743Z,2.40
2022-12-08T17:36:32.577Z,2.28
2022-12-08T17:39:00.234Z,2.17
2022-12-08T17:41:27.145Z,1.90
2022-12-08T17:43:53.769Z,2.13
2022-12-08T17:46:21.073Z,2.25
2022-12-08T17:48:47.743Z,2.22
2022-12-08T17:51:14.894Z,1.48
2022-12-08T17:53:41.366Z,2.25
2022-12-08T17:56:15.715Z,1.75
2022-12-08T17:58:42.316Z,2.70
2022-12-08T18:01:09.958Z,2.17
2022-12-08T18:03:37.166Z,2.08
2022-12-08T18:06:08.093Z,2.28
2022-12-08T18:08:34.872Z,2.03
2022-12-08T18:11:01.753Z,2.60
2022-12-08T18:13:28.571Z,2.25
2022-12-08T18:15:55.169Z,2.67
2022-12-08T18:18:22.660Z,2.80
2022-12-08T18:20:49.885Z,1.98
2022-12-08T18:23:17.192Z,2.03
2022-12-08T18:25:44.320Z,2.00
2022-12-08T18:28:10.923Z,1.77
2022-12-08T18:30:37.568Z,1.80
2022-12-08T18:33:04.984Z,2.15
2022-12-08T18:35:31.878Z,2.55
2022-12-08T18:37:59.997Z,2.05
2022-12-08T18:40:27.774Z,2.13
2022-12-08T18:42:54.353Z,1.83
2022-12-08T18:45:22.734Z,2.78
2022-12-08T18:47:51.002Z,2.20
2022-12-08T18:50:17.854Z,2.17
2022-12-08T18:52:45.785Z,1.65
2022-12-08T18:55:12.827Z,2.40
2022-12-08T18:57:41.595Z,2.00
2022-12-08T19:00:11.780Z,2.60
2022-12-08T19:02:38.824Z,2.28
2022-12-08T19:05:06.442Z,1.95
2022-12-08T19:07:33.059Z,2.10
2022-12-08T19:09:59.636Z,2.00
2022-12-08T19:12:26.254Z,2.50
2022-12-08T19:14:52.913Z,2.08
2022-12-08T19:17:19.505Z,1.70
2022-12-08T19:19:46.060Z,2.20
2022-12-08T19:22:12.662Z,2.38
2022-12-08T19:24:39.180Z,2.15
2022-12-08T19:27:05.861Z,2.40
2022-12-08T19:29:32.484Z,2.05
2022-12-08T19:32:00.272Z,1.52
2022-12-08T19:34:26.878Z,2.40
2022-12-08T19:36:53.420Z,1.83
2022-12-08T19:39:40.572Z,1.70
2022-12-08T19:42:36.928Z,2.10
2022-12-08T19:45:06.369Z,2.22
2022-12-08T19:47:33.286Z,2.15
2022-12-08T19:50:18.587Z,2.03
2022-12-08T19:52:45.334Z,1.85
2022-12-08T19:55:12.609Z,2.10
2022-12-08T19:57:39.259Z,2.58
2022-12-08T20:00:06.723Z,2.60
2022-12-08T20:02:36.532Z,2.75
2022-12-08T20:05:04.979Z,2.58
2022-12-08T20:09:57.915Z,2.30
2022-12-08T20:12:24.515Z,2.83
2022-12-08T20:14:51.239Z,2.45
2022-12-08T20:17:17.868Z,2.55
2022-12-08T20:19:44.444Z,2.50
2022-12-08T20:22:11.001Z,2.30
2022-12-08T20:24:37.560Z,2.13
2022-12-08T20:27:04.225Z,2.45
2022-12-08T20:29:30.753Z,3.00
2022-12-08T20:31:57.380Z,2.53
2022-12-08T20:34:23.972Z,2.40
2022-12-08T20:36:50.649Z,2.58
2022-12-08T20:39:17.841Z,2.53
2022-12-08T20:41:45.624Z,2.05
2022-12-08T20:44:12.530Z,2.47
2022-12-08T20:46:39.258Z,2.65
2022-12-08T20:49:06.053Z,2.50
2022-12-08T20:51:33.326Z,2.85
2022-12-08T20:54:00.238Z,2.55
2022-12-08T20:56:27.151Z,2.85
2022-12-08T20:58:54.561Z,2.92
2022-12-08T21:01:23.106Z,2.78
2022-12-08T21:03:50.519Z,3.22
2022-12-08T21:06:21.611Z,2.35
2022-12-08T21:08:48.600Z,2.70
2022-12-08T21:11:15.706Z,3.42
2022-12-08T21:13:43.167Z,2.53
2022-12-08T21:16:15.581Z,2.65
2022-12-08T21:18:42.290Z,3.63
2022-12-08T21:21:11.278Z,3.00
2022-12-08T21:23:38.099Z,2.38
2022-12-08T21:26:13.748Z,3.30
2022-12-08T21:28:40.710Z,2.70
2022-12-08T21:31:13.055Z,3.20
2022-12-08T21:33:39.949Z,3.15
2022-12-08T21:36:18.385Z,2.72
2022-12-08T21:38:45.298Z,3.33
2022-12-08T21:41:14.850Z,3.25
2022-12-08T21:43:42.464Z,3.38
2022-12-08T21:46:16.836Z,3.13
2022-12-08T21:48:43.868Z,2.58
2022-12-08T21:51:10.960Z,2.55
2022-12-08T21:53:37.709Z,2.92
2022-12-08T21:56:08.768Z,3.03
2022-12-08T21:58:35.408Z,2.63
2022-12-08T22:01:10.819Z,2.53
2022-12-08T22:03:39.177Z,2.80
2022-12-08T22:06:11.514Z,2.53
2022-12-08T22:08:38.959Z,2.95
2022-12-08T22:11:06.436Z,3.25
2022-12-08T22:13:35.010Z,2.65
2022-12-08T22:16:03.835Z,3.20
2022-12-08T22:18:30.860Z,2.50
2022-12-08T22:20:57.874Z,2.67
2022-12-08T22:23:24.383Z,2.17
2022-12-08T22:26:00.933Z,2.83
2022-12-08T22:28:30.691Z,2.83
2022-12-08T22:30:57.433Z,3.28
2022-12-08T22:33:24.145Z,2.63
2022-12-08T22:36:08.129Z,2.10
2022-12-08T22:38:34.773Z,2.35
2022-12-08T22:41:04.336Z,3.05
2022-12-08T22:43:31.281Z,2.70
2022-12-08T22:45:57.977Z,2.10
2022-12-08T22:48:25.132Z,2.97
2022-12-08T22:50:51.615Z,2.47
2022-12-08T22:53:18.190Z,2.70
2022-12-08T22:55:44.910Z,3.17
2022-12-08T22:58:11.879Z,3.30
2022-12-08T23:00:38.588Z,3.10
2022-12-08T23:03:06.387Z,2.97
2022-12-08T23:05:37.591Z,3.35
2022-12-08T23:08:05.559Z,3.15
2022-12-08T23:10:33.047Z,3.22
2022-12-08T23:13:03.813Z,3.83
2022-12-08T23:15:30.789Z,3.17
2022-12-08T23:17:57.504Z,3.15
2022-12-08T23:20:24.120Z,2.92
2022-12-08T23:22:50.883Z,3.05
2022-12-08T23:25:18.542Z,2.63
2022-12-08T23:27:46.161Z,3.38
2022-12-08T23:30:13.687Z,3.90
2022-12-08T23:32:40.257Z,3.40
2022-12-08T23:35:08.013Z,3.10
2022-12-08T23:37:34.781Z,3.20
2022-12-08T23:40:01.442Z,3.30
2022-12-08T23:42:30.106Z,3.17
2022-12-08T23:44:56.663Z,2.85
2022-12-08T23:47:23.253Z,3.10
2022-12-08T23:49:49.913Z,3.25
2022-12-08T23:52:16.523Z,3.78
2022-12-08T23:54:44.442Z,4.00
2022-12-08T23:57:11.180Z,2.95
2022-12-08T23:59:37.774Z,3.20
